createdAt,value
2022-12-11T07:26:16.461Z,39.3
2022-12-11T07:26:19.941Z,38.8
2022-12-11T07:27:46.787Z,38.6
2022-12-11T07:28:39.401Z,38.7
2022-12-11T07:29:52.838Z,38.7
2022-12-11T07:31:05.318Z,38.7
2022-12-11T07:32:09.492Z,38.8
2022-12-11T07:33:22.041Z,38.9
2022-12-11T07:34:35.865Z,38.9
2022-12-11T07:35:38.527Z,39.0
2022-12-11T07:36:51.841Z,39.1
2022-12-11T07:38:04.247Z,39.3
2022-12-11T07:39:17.352Z,39.3
2022-12-11T07:40:19.839Z,39.4
2022-12-11T07:41:33.484Z,39.5
2022-12-11T07:42:46.386Z,39.5
2022-12-11T07:43:50.323Z,39.6
2022-12-11T07:45:02.773Z,39.6
2022-12-11T07:46:16.352Z,39.7
2022-12-11T07:47:18.945Z,39.7
2022-12-11T07:48:32.342Z,39.8
2022-12-11T07:49:44.766Z,39.9
2022-12-11T07:50:57.843Z,39.8
2022-12-11T07:52:00.662Z,39.9
2022-12-11T07:53:13.825Z,40.0
2022-12-11T07:54:26.286Z,39.9
2022-12-11T07:55:29.838Z,40.0
2022-12-11T07:56:43.895Z,40.0
2022-12-11T07:57:57.367Z,40.0
2022-12-11T07:58:59.891Z,40.0
2022-12-11T08:00:13.341Z,39.9
2022-12-11T08:01:25.827Z,40.0
2022-12-11T08:02:35.440Z,39.9
2022-12-11T08:03:39.698Z,40.0
2022-12-11T08:04:52.866Z,39.9
2022-12-11T08:06:05.393Z,40.0
2022-12-11T08:07:08.821Z,40.2
2022-12-11T08:08:21.366Z,40.3
2022-12-11T08:09:34.815Z,40.5
2022-12-11T08:10:47.380Z,40.8
2022-12-11T08:11:50.848Z,41.0
2022-12-11T08:13:03.459Z,41.2
2022-12-11T08:14:19.333Z,41.4
2022-12-11T08:15:22.004Z,41.6
2022-12-11T08:16:35.349Z,41.8
2022-12-11T08:17:48.054Z,42.1
2022-12-11T08:18:51.812Z,42.2
2022-12-11T08:20:14.560Z,42.4
2022-12-11T08:21:18.361Z,42.6
2022-12-11T08:22:21.071Z,42.8
2022-12-11T08:23:34.340Z,42.9
2022-12-11T08:24:47.064Z,43.0
2022-12-11T08:25:50.844Z,43.1
2022-12-11T08:27:03.549Z,43.2
2022-12-11T08:28:17.328Z,43.3
2022-12-11T08:29:20.067Z,43.4
2022-12-11T08:30:33.981Z,43.5
2022-12-11T08:31:46.757Z,43.6
2022-12-11T08:32:50.483Z,43.7
2022-12-11T08:34:03.208Z,43.7
2022-12-11T08:35:16.852Z,43.7
2022-12-11T08:36:29.622Z,43.9
2022-12-11T08:37:33.539Z,43.9
2022-12-11T08:38:46.556Z,44.0
2022-12-11T08:40:00.321Z,44.0
2022-12-11T08:41:03.145Z,44.1
2022-12-11T08:42:26.862Z,44.2
2022-12-11T08:43:29.668Z,44.2
2022-12-11T08:44:33.364Z,44.3
2022-12-11T08:46:06.287Z,44.3
2022-12-11T08:47:30.385Z,44.4
2022-12-11T08:48:03.304Z,44.5
2022-12-11T08:49:16.024Z,44.5
2022-12-11T08:50:29.410Z,44.4
2022-12-11T08:51:32.286Z,44.4
2022-12-11T08:52:45.841Z,44.4
2022-12-11T08:53:58.818Z,44.4
2022-12-11T08:55:12.690Z,44.4
2022-12-11T08:56:15.776Z,44.4
2022-12-11T08:57:39.386Z,44.4
2022-12-11T08:58:42.780Z,44.4
2022-12-11T08:59:46.667Z,44.5
2022-12-11T09:00:59.620Z,44.5
2022-12-11T09:02:13.481Z,44.4
2022-12-11T09:03:16.402Z,44.5
2022-12-11T09:04:29.917Z,44.5
2022-12-11T09:05:42.827Z,44.5
2022-12-11T09:06:46.360Z,44.6
2022-12-11T09:07:59.167Z,44.5
2022-12-11T09:09:12.885Z,44.6
2022-12-11T09:10:15.819Z,44.6
2022-12-11T09:11:29.874Z,44.6
2022-12-11T09:12:42.669Z,44.6
2022-12-11T09:13:46.454Z,44.6
2022-12-11T09:14:59.268Z,44.6
2022-12-11T09:16:12.941Z,44.6
2022-12-11T09:17:16.000Z,44.7
2022-12-11T09:18:29.378Z,44.7
2022-12-11T09:19:42.151Z,44.7
2022-12-11T09:20:56.027Z,44.7
2022-12-11T09:21:58.907Z,44.8
2022-12-11T09:23:12.389Z,44.8
2022-12-11T09:24:25.165Z,44.8
2022-12-11T09:25:28.933Z,44.8
2022-12-11T09:26:41.847Z,44.8
2022-12-11T09:27:55.375Z,44.8
2022-12-11T09:28:58.358Z,44.9
2022-12-11T09:30:11.902Z,44.9
2022-12-11T09:31:24.784Z,44.8
2022-12-11T09:32:28.868Z,44.9
2022-12-11T09:33:41.681Z,44.8
2022-12-11T09:34:55.360Z,44.9
2022-12-11T09:35:58.338Z,44.9
2022-12-11T09:37:12.394Z,44.9
2022-12-11T09:38:25.225Z,45.0
2022-12-11T09:39:28.908Z,45.3
2022-12-11T09:40:41.732Z,45.2
2022-12-11T09:42:05.386Z,45.1
2022-12-11T09:42:58.327Z,45.1
2022-12-11T09:44:11.869Z,45.1
2022-12-11T09:45:24.674Z,45.1
2022-12-11T09:46:38.424Z,45.2
2022-12-11T09:47:41.378Z,45.1
2022-12-11T09:48:57.361Z,45.1
2022-12-11T09:50:00.201Z,45.1
2022-12-11T09:51:13.905Z,45.1
2022-12-11T09:52:36.685Z,45.1
2022-12-11T09:53:34.143Z,45.1
2022-12-11T09:54:47.295Z,45.1
2022-12-11T09:55:50.855Z,45.1
2022-12-11T09:57:03.754Z,45.1
2022-12-11T09:58:17.397Z,45.0
2022-12-11T09:59:20.459Z,45.0
2022-12-11T10:00:33.884Z,45.1
2022-12-11T10:01:46.765Z,45.3
2022-12-11T10:03:00.424Z,45.4
2022-12-11T10:04:03.286Z,45.4
2022-12-11T10:05:19.407Z,45.5
2022-12-11T10:06:22.852Z,45.6
2022-12-11T10:07:36.386Z,45.6
2022-12-11T10:08:49.186Z,45.6
2022-12-11T10:09:52.912Z,45.5
2022-12-11T10:11:05.784Z,45.6
2022-12-11T10:12:19.386Z,45.5
2022-12-11T10:13:22.294Z,45.5
2022-12-11T10:14:35.944Z,45.5
2022-12-11T10:15:48.988Z,45.6
2022-12-11T10:16:52.917Z,45.5
2022-12-11T10:18:05.733Z,45.5
2022-12-11T10:19:19.920Z,45.6
2022-12-11T10:20:22.845Z,45.7
2022-12-11T10:21:36.406Z,46.0
2022-12-11T10:22:49.184Z,46.0
2022-12-11T10:24:02.903Z,45.9
2022-12-11T10:25:12.540Z,45.7
2022-12-11T10:26:16.400Z,45.5
2022-12-11T10:27:29.033Z,45.2
2022-12-11T10:28:42.930Z,45.0
2022-12-11T10:29:45.750Z,44.7
2022-12-11T10:30:59.423Z,44.5
2022-12-11T10:32:12.119Z,44.2
2022-12-11T10:33:15.405Z,44.0
2022-12-11T10:34:27.971Z,43.8
2022-12-11T10:35:41.376Z,43.8
2022-12-11T10:36:58.781Z,43.6
2022-12-11T10:38:03.884Z,43.5
2022-12-11T10:39:06.489Z,43.4
2022-12-11T10:40:19.916Z,43.2
2022-12-11T10:41:32.457Z,43.1
2022-12-11T10:42:38.904Z,42.9
2022-12-11T10:57:02.559Z,42.8
2022-12-11T10:59:05.600Z,41.7
2022-12-11T11:01:55.535Z,40.9
2022-12-11T11:02:48.214Z,40.6
2022-12-11T11:04:50.922Z,40.4
2022-12-11T11:04:54.007Z,40.2
2022-12-11T11:06:06.308Z,40.1
2022-12-11T11:07:10.397Z,40.0
2022-12-11T11:08:22.912Z,39.9
2022-12-11T11:09:36.411Z,39.8
2022-12-11T11:10:39.070Z,40.0
2022-12-11T11:11:54.070Z,40.1
2022-12-11T11:13:06.620Z,40.1
2022-12-11T11:16:59.694Z,40.3
2022-12-11T11:17:03.554Z,40.5
2022-12-11T11:18:36.292Z,40.6
2022-12-11T11:19:26.533Z,40.7
2022-12-11T11:24:00.461Z,40.7
2022-12-11T11:28:41.907Z,40.7
2022-12-11T11:28:45.033Z,40.4
2022-12-11T11:29:17.795Z,38.7
2022-12-11T11:30:30.024Z,39.5
2022-12-11T11:31:42.934Z,39.4
2022-12-11T11:32:45.532Z,38.9
2022-12-11T11:33:58.400Z,37.8
2022-12-11T11:35:10.941Z,36.9
2022-12-11T11:36:24.387Z,36.0
2022-12-11T11:37:26.855Z,33.2
2022-12-11T11:38:40.411Z,29.0
2022-12-11T11:39:52.817Z,32.7
2022-12-11T11:41:02.461Z,30.1
2022-12-11T11:42:07.607Z,30.8
2022-12-11T11:43:20.897Z,31.3
2022-12-11T11:44:33.495Z,30.7
2022-12-11T11:45:36.939Z,31.9
2022-12-11T11:46:49.530Z,32.1
2022-12-11T11:48:07.742Z,32.7
2022-12-11T11:49:13.796Z,34.3
2022-12-11T12:14:56.190Z,34.9
2022-12-11T12:14:59.566Z,35.5
2022-12-11T12:16:43.787Z,35.8
2022-12-11T12:17:26.603Z,37.1
2022-12-11T12:37:53.268Z,36.5
2022-12-11T12:37:57.502Z,37.0
2022-12-11T12:38:20.302Z,37.0
2022-12-11T12:39:52.571Z,37.0
2022-12-11T12:40:38.164Z,37.0
2022-12-11T12:41:50.782Z,37.1
2022-12-11T12:44:04.032Z,37.2
2022-12-11T12:44:17.525Z,37.4
2022-12-11T12:45:20.067Z,37.7
2022-12-11T12:46:23.525Z,37.8
2022-12-11T12:48:15.665Z,37.9
2022-12-11T12:48:49.492Z,38.1
2022-12-11T12:49:52.002Z,38.3
2022-12-11T12:51:17.025Z,38.4
2022-12-11T12:52:20.618Z,38.5
2022-12-11T12:53:24.474Z,38.7
2022-12-11T12:54:36.896Z,38.6
2022-12-11T12:55:50.027Z,38.7
2022-12-11T12:56:52.685Z,38.9
2022-12-11T12:58:06.103Z,38.9
2022-12-11T12:59:18.640Z,39.0
2022-12-11T13:00:22.121Z,39.1
2022-12-11T13:01:35.073Z,39.2
2022-12-11T13:02:58.999Z,39.3
2022-12-11T13:03:51.750Z,39.5
2022-12-11T13:05:15.500Z,39.5
2022-12-11T13:06:18.130Z,39.6
2022-12-11T13:07:31.585Z,39.6
2022-12-11T13:08:34.226Z,39.7
2022-12-11T13:09:47.991Z,39.7
2022-12-11T13:11:00.653Z,39.8
2022-12-11T13:12:04.144Z,39.8
2022-12-11T13:13:16.676Z,39.9
2022-12-11T13:14:30.061Z,40.0
2022-12-11T13:15:32.785Z,40.0
2022-12-11T13:16:46.102Z,40.0
2022-12-11T13:17:58.723Z,40.0
2022-12-11T13:19:12.017Z,40.1
2022-12-11T13:20:14.687Z,40.0
2022-12-11T13:21:28.537Z,40.1
2022-12-11T13:22:41.170Z,40.1
2022-12-11T13:23:44.988Z,40.1
2022-12-11T13:24:57.709Z,40.2
2022-12-11T13:26:11.027Z,40.2
2022-12-11T13:27:13.578Z,40.2
2022-12-11T13:28:27.012Z,40.3
2022-12-11T13:29:39.506Z,40.4
2022-12-11T13:30:57.145Z,40.5
2022-12-11T13:32:00.046Z,40.5
2022-12-11T13:33:03.501Z,40.6
2022-12-11T13:34:15.970Z,40.7
2022-12-11T13:35:29.517Z,40.8
2022-12-11T13:36:43.129Z,40.9
2022-12-11T13:37:47.030Z,40.9
2022-12-11T13:38:59.528Z,41.1
2022-12-11T13:40:23.040Z,41.2
2022-12-11T13:41:26.163Z,41.3
2022-12-11T13:42:29.530Z,41.5
2022-12-11T13:43:42.033Z,41.5
2022-12-11T13:44:45.542Z,41.5
2022-12-11T13:45:58.118Z,41.5
2022-12-11T13:47:11.693Z,41.5
2022-12-11T13:48:16.934Z,41.5
2022-12-11T13:49:30.521Z,41.5
2022-12-11T13:50:43.026Z,41.5
2022-12-11T13:51:46.516Z,41.5
2022-12-11T13:52:59.013Z,41.5
2022-12-11T13:54:16.520Z,41.5
2022-12-11T13:55:19.754Z,41.5
2022-12-11T13:56:33.013Z,41.4
2022-12-11T13:57:35.598Z,41.5
2022-12-11T13:58:49.025Z,41.4
2022-12-11T14:00:01.552Z,41.4
2022-12-11T14:01:15.142Z,41.4
2022-12-11T14:02:17.972Z,41.4
2022-12-11T14:03:31.530Z,41.4
2022-12-11T14:04:43.971Z,41.4
2022-12-11T14:05:47.530Z,41.5
2022-12-11T14:06:59.920Z,41.5
2022-12-11T14:08:13.081Z,41.5
2022-12-11T14:09:15.862Z,41.5
2022-12-11T14:10:29.022Z,41.6
2022-12-11T14:11:41.527Z,41.5
2022-12-11T14:12:55.068Z,41.5
2022-12-11T14:13:57.701Z,41.6
2022-12-11T14:15:11.208Z,41.5
2022-12-11T14:16:23.965Z,41.5
2022-12-11T14:17:27.520Z,41.5
2022-12-11T14:18:40.079Z,41.5
2022-12-11T14:19:53.521Z,41.5
2022-12-11T14:21:07.097Z,41.6
2022-12-11T14:22:10.505Z,41.6
2022-12-11T14:23:22.990Z,41.7
2022-12-11T14:24:36.497Z,41.7
2022-12-11T14:25:39.144Z,41.7
2022-12-11T14:26:52.559Z,41.7
2022-12-11T14:28:05.063Z,41.7
2022-12-11T14:29:08.557Z,41.7
2022-12-11T14:30:21.052Z,41.7
2022-12-11T14:31:34.549Z,41.7
2022-12-11T14:32:37.373Z,41.6
2022-12-11T14:33:50.552Z,41.6
2022-12-11T14:35:03.007Z,41.6
2022-12-11T14:36:17.002Z,41.6
2022-12-11T14:37:19.689Z,41.6
2022-12-11T14:38:33.026Z,41.6
2022-12-11T14:40:55.218Z,41.7
2022-12-11T14:40:58.531Z,41.7
2022-12-11T14:42:01.094Z,41.6
2022-12-11T14:43:14.570Z,41.6
2022-12-11T14:44:27.003Z,41.5
2022-12-11T14:45:31.171Z,41.5
2022-12-11T14:46:43.716Z,41.4
2022-12-11T14:47:57.061Z,41.4
2022-12-11T14:49:01.292Z,41.4
2022-12-11T14:50:15.048Z,41.3
2022-12-11T14:51:28.487Z,41.3
2022-12-11T14:52:32.069Z,41.3
2022-12-11T14:53:44.476Z,41.3
2022-12-11T14:55:07.598Z,41.3
2022-12-11T14:56:10.192Z,41.2
2022-12-11T14:57:14.020Z,41.1
2022-12-11T14:58:26.597Z,41.1
2022-12-11T14:59:40.057Z,41.2
2022-12-11T15:00:43.745Z,41.4
2022-12-11T15:02:07.132Z,41.5
2022-12-11T15:03:09.845Z,41.7
2022-12-11T15:04:13.548Z,41.9
2022-12-11T15:05:26.214Z,42.1
2022-12-11T15:06:39.653Z,42.3
2022-12-11T15:07:42.396Z,42.5
2022-12-11T15:08:56.535Z,42.7
2022-12-11T15:10:09.502Z,42.9
2022-12-11T15:11:13.541Z,43.0
2022-12-11T15:12:26.371Z,43.2
2022-12-11T15:13:40.073Z,43.3
2022-12-11T15:14:52.888Z,43.5
2022-12-11T15:15:56.519Z,43.6
2022-12-11T15:17:09.932Z,43.7
2022-12-11T15:18:24.092Z,43.8
2022-12-11T15:19:27.225Z,43.9
2022-12-11T15:20:41.031Z,44.0
2022-12-11T15:21:53.992Z,44.1
2022-12-11T15:22:57.558Z,44.2
2022-12-11T15:24:10.474Z,44.2
2022-12-11T15:25:24.032Z,44.3
2022-12-11T15:26:26.856Z,44.4
2022-12-11T15:27:40.900Z,44.4
2022-12-11T15:28:53.805Z,44.5
2022-12-11T15:29:57.527Z,44.5
2022-12-11T15:31:10.467Z,44.6
2022-12-11T15:32:24.575Z,44.6
2022-12-11T15:33:32.571Z,44.6
2022-12-11T15:34:38.045Z,44.7
2022-12-11T15:35:50.883Z,44.7
2022-12-11T15:37:14.547Z,44.7
2022-12-11T15:38:17.337Z,44.7
2022-12-11T15:39:21.116Z,44.7
2022-12-11T15:40:33.917Z,44.7
2022-12-11T15:41:47.535Z,44.8
2022-12-11T15:42:50.518Z,44.7
2022-12-11T15:44:04.081Z,44.8
2022-12-11T15:45:16.861Z,44.8
2022-12-11T15:46:20.666Z,44.8
2022-12-11T15:47:33.574Z,44.8
2022-12-11T15:48:47.593Z,44.8
2022-12-11T15:49:50.460Z,44.8
2022-12-11T15:51:04.154Z,44.8
2022-12-11T15:52:16.931Z,44.9
2022-12-11T15:53:30.554Z,44.9
2022-12-11T15:54:43.333Z,44.9
2022-12-11T15:55:47.089Z,44.9
2022-12-11T15:56:59.873Z,44.9
2022-12-11T15:58:03.743Z,45.0
2022-12-11T15:59:16.495Z,44.9
2022-12-11T16:00:40.022Z,44.9
2022-12-11T16:01:43.044Z,44.9
2022-12-11T16:02:46.638Z,44.9
2022-12-11T16:04:03.319Z,45.0
2022-12-11T16:05:08.667Z,44.9
2022-12-11T16:06:21.521Z,45.0
2022-12-11T16:07:35.121Z,45.0
2022-12-11T16:08:37.977Z,44.9
2022-12-11T16:09:51.545Z,44.9
2022-12-11T16:11:04.328Z,44.9
2022-12-11T16:12:08.037Z,45.0
2022-12-11T16:13:21.423Z,45.0
2022-12-11T16:14:35.064Z,44.9
2022-12-11T16:15:37.927Z,45.0
2022-12-11T16:16:52.080Z,45.0
2022-12-11T16:18:15.031Z,45.0
2022-12-11T16:19:09.068Z,45.0
2022-12-11T16:20:21.833Z,45.0
2022-12-11T16:21:35.550Z,45.0
2022-12-11T16:22:38.337Z,45.0
2022-12-11T16:23:52.064Z,45.0
2022-12-11T16:25:04.947Z,45.0
2022-12-11T16:26:18.590Z,45.1
2022-12-11T16:27:23.251Z,45.0
2022-12-11T16:28:38.042Z,45.1
2022-12-11T16:29:40.824Z,45.0
2022-12-11T16:30:54.574Z,45.0
2022-12-11T16:32:07.950Z,45.0
2022-12-11T16:33:13.106Z,45.1
2022-12-11T16:34:26.456Z,45.1
2022-12-11T16:36:00.333Z,45.1
2022-12-11T16:36:43.198Z,45.1
2022-12-11T16:37:55.958Z,45.1
2022-12-11T16:39:10.179Z,45.1
2022-12-11T16:40:22.951Z,45.1
2022-12-11T16:41:26.549Z,45.1
2022-12-11T16:42:39.286Z,45.1
2022-12-11T16:43:53.078Z,45.1
2022-12-11T16:45:05.891Z,45.1
2022-12-11T16:46:09.609Z,45.1
2022-12-11T16:47:22.552Z,45.1
2022-12-11T16:48:26.733Z,45.1
2022-12-11T16:49:39.501Z,45.1
2022-12-11T16:51:13.606Z,45.2
2022-12-11T16:51:56.718Z,45.1
2022-12-11T16:53:09.525Z,45.1
2022-12-11T16:54:25.572Z,45.2
2022-12-11T16:55:28.388Z,45.2
2022-12-11T16:56:42.054Z,45.2
2022-12-11T16:57:54.814Z,45.3
2022-12-11T16:58:58.581Z,45.3
2022-12-11T17:00:11.336Z,45.4
2022-12-11T17:01:25.122Z,45.3
2022-12-11T17:02:27.914Z,45.2
2022-12-11T17:03:41.561Z,45.1
2022-12-11T17:04:55.298Z,44.9
2022-12-11T17:06:09.035Z,44.7
2022-12-11T17:07:11.669Z,44.5
2022-12-11T17:08:25.276Z,44.4
2022-12-11T17:09:27.991Z,44.3
2022-12-11T17:10:41.600Z,44.2
2022-12-11T17:11:54.119Z,44.1
2022-12-11T17:13:07.623Z,43.9
2022-12-11T17:14:10.293Z,43.8
2022-12-11T17:15:23.596Z,43.7
2022-12-11T17:16:46.058Z,43.6
2022-12-11T17:17:59.588Z,43.5
2022-12-11T17:18:52.229Z,43.5
2022-12-11T17:20:05.554Z,43.3
2022-12-11T17:21:18.022Z,43.3
2022-12-11T17:22:21.602Z,43.2
2022-12-11T17:23:34.095Z,43.1
2022-12-11T17:24:47.559Z,43.1
2022-12-11T17:25:50.093Z,43.0
2022-12-11T17:27:03.552Z,43.0
2022-12-11T17:28:16.017Z,42.9
2022-12-11T17:29:49.623Z,42.9
2022-12-11T17:30:32.409Z,42.9
2022-12-11T17:31:44.830Z,42.9
2022-12-11T17:32:58.124Z,42.8
2022-12-11T17:34:00.750Z,42.9
2022-12-11T17:35:14.395Z,42.8
2022-12-11T17:36:27.048Z,42.8
2022-12-11T17:37:41.592Z,42.7
2022-12-11T17:38:44.133Z,42.8
2022-12-11T17:39:57.769Z,42.7
2022-12-11T17:41:00.286Z,42.8
2022-12-11T17:42:14.319Z,42.7
2022-12-11T17:43:26.788Z,42.7
2022-12-11T17:44:40.054Z,42.6
2022-12-11T17:47:11.328Z,42.7
2022-12-11T17:48:04.065Z,42.7
2022-12-11T17:49:17.443Z,42.6
2022-12-11T17:50:19.954Z,42.6
2022-12-11T17:51:33.476Z,42.6
2022-12-11T17:52:46.080Z,42.5
2022-12-11T17:53:59.464Z,42.5
2022-12-11T17:55:02.374Z,42.5
2022-12-11T17:56:15.515Z,42.4
2022-12-11T17:57:27.890Z,42.4
2022-12-11T17:58:31.440Z,42.4
2022-12-11T17:59:43.818Z,42.4
2022-12-11T18:00:57.515Z,42.4
2022-12-11T18:02:00.167Z,42.4
2022-12-11T18:03:13.571Z,42.3
2022-12-11T18:04:26.143Z,42.4
2022-12-11T18:05:39.462Z,42.3
2022-12-11T18:06:41.953Z,42.3
2022-12-11T18:07:57.905Z,42.3
2022-12-11T18:09:00.929Z,42.3
2022-12-11T18:10:14.507Z,42.2
2022-12-11T18:11:26.801Z,42.2
2022-12-11T18:12:39.965Z,42.2
2022-12-11T18:13:42.533Z,42.1
2022-12-11T18:14:55.975Z,42.1
2022-12-11T18:16:08.726Z,42.1
2022-12-11T18:17:11.932Z,42.1
2022-12-11T18:18:24.281Z,42.1
2022-12-11T18:19:41.475Z,42.1
2022-12-11T18:20:48.367Z,42.1
2022-12-11T18:21:52.021Z,42.0
2022-12-11T18:23:04.403Z,42.1
2022-12-11T18:24:17.522Z,42.0
2022-12-11T18:25:20.024Z,42.0
2022-12-11T18:26:33.459Z,41.9
2022-12-11T18:27:55.812Z,41.9
2022-12-11T18:28:59.447Z,42.0
2022-12-11T18:30:01.926Z,41.9
2022-12-11T18:31:15.728Z,41.9
2022-12-11T18:32:28.300Z,41.9
2022-12-11T18:33:31.498Z,41.9
2022-12-11T18:34:43.897Z,41.8
2022-12-11T18:35:57.460Z,41.8
2022-12-11T18:37:10.227Z,41.8
2022-12-11T18:38:13.489Z,41.8
2022-12-11T18:39:25.916Z,41.8
2022-12-11T18:40:38.981Z,41.8
2022-12-11T18:41:41.587Z,41.9
2022-12-11T18:42:55.212Z,41.9
2022-12-11T18:44:09.985Z,41.8
2022-12-11T18:45:14.283Z,41.8
2022-12-11T18:46:26.903Z,41.8
2022-12-11T18:47:40.021Z,41.8
2022-12-11T18:48:42.490Z,41.7
2022-12-11T18:49:55.579Z,41.7
2022-12-11T18:51:07.896Z,41.8
2022-12-11T18:52:10.959Z,41.8
2022-12-11T18:53:23.370Z,41.8
2022-12-11T18:54:36.484Z,41.8
2022-12-11T18:55:48.889Z,41.9
2022-12-11T18:56:52.468Z,41.8
2022-12-11T18:58:04.911Z,41.8
2022-12-11T18:59:18.478Z,41.8
2022-12-11T19:00:21.040Z,41.8
2022-12-11T19:01:35.016Z,41.8
2022-12-11T19:02:47.389Z,41.7
2022-12-11T19:03:50.468Z,41.8
2022-12-11T19:05:02.835Z,41.8
2022-12-11T19:06:15.987Z,41.7
2022-12-11T19:07:28.356Z,41.8
2022-12-11T19:08:31.494Z,41.7
2022-12-11T19:09:48.026Z,41.7
2022-12-11T19:10:51.982Z,41.7
2022-12-11T19:12:04.331Z,41.7
2022-12-11T19:13:17.474Z,41.6
2022-12-11T19:14:20.005Z,41.6
2022-12-11T19:15:33.474Z,41.6
2022-12-11T19:16:45.823Z,41.6
2022-12-11T19:17:59.509Z,41.6
2022-12-11T19:19:01.977Z,41.7
2022-12-11T19:20:40.168Z,41.7
2022-12-11T19:21:20.599Z,41.7
2022-12-11T19:22:32.960Z,41.6
2022-12-11T19:23:45.991Z,41.6
2022-12-11T19:24:58.157Z,41.6
2022-12-11T19:26:21.485Z,41.6
2022-12-11T19:27:14.279Z,41.6
2022-12-11T19:28:27.478Z,41.6
2022-12-11T19:29:29.941Z,41.6
2022-12-11T19:30:42.992Z,41.6
2022-12-11T19:31:55.381Z,41.5
2022-12-11T19:33:08.504Z,41.4
2022-12-11T19:34:10.946Z,41.5
2022-12-11T19:35:24.003Z,41.5
2022-12-11T19:36:36.367Z,41.4
2022-12-11T19:37:49.488Z,41.4
2022-12-11T19:38:52.024Z,41.4
2022-12-11T19:40:06.508Z,41.4
2022-12-11T19:41:18.954Z,41.5
2022-12-11T19:42:22.477Z,41.5
2022-12-11T19:43:34.938Z,41.3
2022-12-11T19:44:48.502Z,41.3
2022-12-11T19:45:51.062Z,41.4
2022-12-11T19:47:04.519Z,41.6
2022-12-11T19:48:17.240Z,41.8
2022-12-11T19:49:20.495Z,41.9
2022-12-11T19:50:33.075Z,42.2
2022-12-11T19:51:46.467Z,42.4
2022-12-11T19:52:59.078Z,42.6
2022-12-11T19:54:02.490Z,42.8
2022-12-11T19:55:15.236Z,43.0
2022-12-11T19:56:29.083Z,43.1
2022-12-11T19:57:31.751Z,43.3
2022-12-11T19:58:45.503Z,43.4
2022-12-11T19:59:58.298Z,43.5
2022-12-11T20:01:02.543Z,43.7
2022-12-11T20:02:16.683Z,43.9
2022-12-11T20:03:20.478Z,44.0
2022-12-11T20:04:33.147Z,44.0
2022-12-11T20:05:46.489Z,44.1
2022-12-11T20:06:49.333Z,44.2
2022-12-11T20:08:35.250Z,44.3
2022-12-11T20:09:16.324Z,44.4
2022-12-11T20:10:19.193Z,44.5
2022-12-11T20:11:32.989Z,44.5
2022-12-11T20:12:45.756Z,44.5
2022-12-11T20:13:59.476Z,44.6
2022-12-11T20:15:02.244Z,44.6
2022-12-11T20:16:16.050Z,44.7
2022-12-11T20:17:28.976Z,44.7
2022-12-11T20:18:32.518Z,44.8
2022-12-11T20:19:45.336Z,44.8
2022-12-11T20:20:59.059Z,44.8
2022-12-11T20:22:01.856Z,44.9
2022-12-11T20:23:15.575Z,44.9
2022-12-11T20:24:28.306Z,45.0
2022-12-11T20:25:31.976Z,45.0
2022-12-11T20:26:44.759Z,45.0
2022-12-11T20:27:58.520Z,45.1
2022-12-11T20:29:01.569Z,45.1
2022-12-11T20:30:17.222Z,45.1
2022-12-11T20:31:30.054Z,45.1
2022-12-11T20:32:33.966Z,45.2
2022-12-11T20:33:56.688Z,45.1
2022-12-11T20:35:01.090Z,45.2
2022-12-11T20:36:03.937Z,45.2
2022-12-11T20:37:18.020Z,45.2
2022-12-11T20:38:34.422Z,45.2
2022-12-11T20:39:38.488Z,45.2
2022-12-11T20:40:51.506Z,45.2
2022-12-11T20:41:55.466Z,45.2
2022-12-11T20:43:48.348Z,45.2
2022-12-11T20:44:22.057Z,45.3
2022-12-11T20:45:25.027Z,45.3
2022-12-11T20:46:39.020Z,45.2
2022-12-11T20:47:51.864Z,45.2
2022-12-11T20:48:55.570Z,45.2
2022-12-11T20:50:08.318Z,45.1
2022-12-11T20:51:25.677Z,45.1
2022-12-11T20:52:28.997Z,45.1
2022-12-11T20:53:42.552Z,45.2
2022-12-11T20:54:45.455Z,45.1
2022-12-11T20:56:01.239Z,45.2
2022-12-11T20:57:34.209Z,45.2
2022-12-11T20:58:27.995Z,45.2
2022-12-11T20:59:30.852Z,45.2
2022-12-11T21:00:44.624Z,45.2
2022-12-11T21:01:47.691Z,45.2
2022-12-11T21:03:02.020Z,45.2
2022-12-11T21:04:15.377Z,45.1
2022-12-11T21:05:20.048Z,45.1
2022-12-11T21:06:32.850Z,45.1
2022-12-11T21:07:46.581Z,45.2
2022-12-11T21:08:50.360Z,45.2
2022-12-11T21:10:04.337Z,45.2
2022-12-11T21:11:07.179Z,45.2
2022-12-11T21:12:24.568Z,45.2
2022-12-11T21:13:31.202Z,45.2
2022-12-11T21:14:46.499Z,45.2
2022-12-11T21:15:49.493Z,45.2
2022-12-11T21:17:03.024Z,45.2
2022-12-11T21:18:15.922Z,45.2
2022-12-11T21:19:30.065Z,45.2
2022-12-11T21:20:32.885Z,45.2
2022-12-11T21:21:46.519Z,45.2
2022-12-11T21:22:49.335Z,45.2
2022-12-11T21:24:03.020Z,45.2
2022-12-11T21:25:16.486Z,45.2
2022-12-11T21:26:20.101Z,45.2
2022-12-11T21:27:32.983Z,45.2
2022-12-11T21:28:56.523Z,45.2
2022-12-11T21:29:49.396Z,45.2
2022-12-11T21:31:03.490Z,45.2
2022-12-11T21:32:16.301Z,45.2
2022-12-11T21:33:20.064Z,45.2
2022-12-11T21:34:32.892Z,45.2
2022-12-11T21:35:46.559Z,45.2
2022-12-11T21:36:49.852Z,45.2
2022-12-11T21:38:03.555Z,45.2
2022-12-11T21:39:16.307Z,45.2
2022-12-11T21:40:30.011Z,45.2
2022-12-11T21:41:32.865Z,45.2
2022-12-11T21:42:57.076Z,45.2
2022-12-11T21:44:56.575Z,45.2
2022-12-11T21:45:59.938Z,45.2
2022-12-11T21:46:24.436Z,45.3
2022-12-11T21:47:27.211Z,45.2
2022-12-11T21:48:41.070Z,45.1
2022-12-11T21:49:43.912Z,45.0
2022-12-11T21:50:57.533Z,45.1
2022-12-11T21:52:10.260Z,45.0
2022-12-11T21:53:14.075Z,45.0
2022-12-11T21:54:37.024Z,45.0
2022-12-11T21:55:50.560Z,45.0
2022-12-11T21:58:11.446Z,45.1
2022-12-11T21:59:04.331Z,45.0
2022-12-11T22:00:18.567Z,45.0
2022-12-11T22:01:51.506Z,45.0
2022-12-11T22:02:55.510Z,45.0
2022-12-11T22:03:48.420Z,45.0
2022-12-11T22:05:02.455Z,45.1
2022-12-11T22:06:05.498Z,45.0
2022-12-11T22:07:21.449Z,45.0
2022-12-11T22:08:24.353Z,45.0
2022-12-11T22:09:37.966Z,45.0
2022-12-11T22:10:51.737Z,44.9
2022-12-11T22:11:58.637Z,45.0
2022-12-11T22:13:21.680Z,45.0
2022-12-11T22:14:15.822Z,45.1
2022-12-11T22:15:29.112Z,45.0
2022-12-11T22:16:43.123Z,45.0
2022-12-11T22:17:45.996Z,45.1
2022-12-11T22:18:59.947Z,45.1
2022-12-11T22:20:12.755Z,45.1
2022-12-11T22:21:16.565Z,45.1
2022-12-11T22:22:29.355Z,45.3
2022-12-11T22:23:42.937Z,45.6
2022-12-11T22:24:45.762Z,45.7
2022-12-11T22:25:59.462Z,45.7
2022-12-11T22:27:32.269Z,45.8
2022-12-11T22:28:36.062Z,45.9
2022-12-11T22:29:29.099Z,46.0
2022-12-11T22:30:43.012Z,46.1
2022-12-11T22:31:46.113Z,46.1
2022-12-11T22:32:59.969Z,46.1
2022-12-11T22:34:12.750Z,46.1
2022-12-11T22:35:36.946Z,46.0
2022-12-11T22:36:49.947Z,46.0
2022-12-11T22:37:44.017Z,46.0
2022-12-11T22:38:46.892Z,46.0
2022-12-11T22:40:20.974Z,45.9
2022-12-11T22:41:20.460Z,45.9
2022-12-11T22:42:25.961Z,45.9
2022-12-11T22:43:29.001Z,45.8
2022-12-11T22:44:42.977Z,45.7
2022-12-11T22:45:55.783Z,45.8
2022-12-11T22:46:59.520Z,45.7
2022-12-11T22:48:12.334Z,45.7
2022-12-11T22:49:35.997Z,45.7
2022-12-11T22:50:28.946Z,45.7
2022-12-11T22:51:42.457Z,45.7
2022-12-11T22:52:55.379Z,45.7
2022-12-11T22:53:58.990Z,45.7
2022-12-11T22:55:11.996Z,45.7
2022-12-11T22:56:25.966Z,45.7
2022-12-11T22:57:28.783Z,45.7
2022-12-11T22:58:42.515Z,45.7
2022-12-11T22:59:55.319Z,45.6
2022-12-11T23:00:58.944Z,45.6
2022-12-11T23:02:12.115Z,45.6
2022-12-11T23:03:25.977Z,45.6
2022-12-11T23:04:28.840Z,45.7
2022-12-11T23:05:42.453Z,45.7
2022-12-11T23:06:55.363Z,45.6
2022-12-11T23:08:09.344Z,45.6
2022-12-11T23:09:12.194Z,45.6
2022-12-11T23:10:26.122Z,45.7
2022-12-11T23:11:38.950Z,45.6
2022-12-11T23:12:42.928Z,45.6
2022-12-11T23:13:55.754Z,45.6
2022-12-11T23:15:09.678Z,45.6
2022-12-11T23:16:12.739Z,45.6
2022-12-11T23:17:26.479Z,45.6
2022-12-11T23:18:39.262Z,45.6
2022-12-11T23:19:42.963Z,45.6
2022-12-11T23:20:55.856Z,45.5
2022-12-11T23:22:09.456Z,45.6
2022-12-11T23:23:12.288Z,45.6
2022-12-11T23:24:26.447Z,45.5
2022-12-11T23:25:39.311Z,45.6
2022-12-11T23:26:43.118Z,45.5
2022-12-11T23:27:55.913Z,45.5
2022-12-11T23:29:09.650Z,45.6
2022-12-11T23:30:12.624Z,45.5
2022-12-11T23:31:26.606Z,45.5
2022-12-11T23:32:39.767Z,45.5
2022-12-11T23:33:53.502Z,45.5
2022-12-11T23:34:56.743Z,45.6
2022-12-11T23:36:10.469Z,45.5
2022-12-11T23:37:13.514Z,45.5
2022-12-11T23:38:27.468Z,45.5
2022-12-11T23:39:40.323Z,45.5
2022-12-11T23:40:53.977Z,45.6
2022-12-11T23:41:56.839Z,45.5
2022-12-11T23:43:30.632Z,45.5
2022-12-11T23:44:23.568Z,45.5
2022-12-11T23:45:38.530Z,45.5
2022-12-11T23:46:41.432Z,45.5
2022-12-11T23:47:55.000Z,45.5
2022-12-11T23:48:57.900Z,45.4
2022-12-11T23:50:11.484Z,45.4
2022-12-11T23:51:24.436Z,45.5
2022-12-11T23:52:29.477Z,45.4
2022-12-11T23:53:42.267Z,45.4
2022-12-11T23:54:55.995Z,45.4
2022-12-11T23:55:58.802Z,45.4
2022-12-11T23:57:12.506Z,45.4
2022-12-11T23:58:25.320Z,45.4
2022-12-11T23:59:29.441Z,45.3
